sensor_id;sensor_type;location;lat;lon;timestamp;temperature;humidity
27266;DHT22;14766;51.380;13.762;2022-12-18T00:01:28;1.20;69.30
27266;DHT22;14766;51.380;13.762;2022-12-18T00:03:55;1.10;69.20
27266;DHT22;14766;51.380;13.762;2022-12-18T00:06:25;1.20;69.20
27266;DHT22;14766;51.380;13.762;2022-12-18T00:08:53;1.10;69.10
27266;DHT22;14766;51.380;13.762;2022-12-18T00:11:22;1.10;69.20
27266;DHT22;14766;51.380;13.762;2022-12-18T00:13:50;1.10;69.20
27266;DHT22;14766;51.380;13.762;2022-12-18T00:16:19;1.10;69.20
27266;DHT22;14766;51.380;13.762;2022-12-18T00:18:49;1.10;69.20
27266;DHT22;14766;51.380;13.762;2022-12-18T00:21:17;1.10;69.20
27266;DHT22;14766;51.380;13.762;2022-12-18T00:23:45;1.10;69.10
27266;DHT22;14766;51.380;13.762;2022-12-18T00:26:20;1.10;69.10
27266;DHT22;14766;51.380;13.762;2022-12-18T00:28:52;1.10;69.00
27266;DHT22;14766;51.380;13.762;2022-12-18T00:31:21;1.00;69.00
27266;DHT22;14766;51.380;13.762;2022-12-18T00:33:52;1.00;69.10
27266;DHT22;14766;51.380;13.762;2022-12-18T00:36:30;1.00;69.20
27266;DHT22;14766;51.380;13.762;2022-12-18T00:39:00;1.00;69.20
27266;DHT22;14766;51.380;13.762;2022-12-18T00:41:28;0.90;69.20
27266;DHT22;14766;51.380;13.762;2022-12-18T00:44:21;0.90;69.30
27266;DHT22;14766;51.380;13.762;2022-12-18T00:46:50;0.90;69.30
27266;DHT22;14766;51.380;13.762;2022-12-18T00:49:18;0.90;69.40
27266;DHT22;14766;51.380;13.762;2022-12-18T00:51:46;0.90;69.50
27266;DHT22;14766;51.380;13.762;2022-12-18T00:54:14;0.90;69.40
27266;DHT22;14766;51.380;13.762;2022-12-18T00:56:41;0.90;69.50
27266;DHT22;14766;51.380;13.762;2022-12-18T00:59:19;0.90;69.50
27266;DHT22;14766;51.380;13.762;2022-12-18T01:01:46;0.90;69.50
27266;DHT22;14766;51.380;13.762;2022-12-18T01:04:14;0.90;69.70
27266;DHT22;14766;51.380;13.762;2022-12-18T01:06:44;0.90;69.60
27266;DHT22;14766;51.380;13.762;2022-12-18T01:09:11;0.80;69.50
27266;DHT22;14766;51.380;13.762;2022-12-18T01:11:39;0.80;69.50
27266;DHT22;14766;51.380;13.762;2022-12-18T01:14:06;0.80;69.50
27266;DHT22;14766;51.380;13.762;2022-12-18T01:16:36;0.80;69.50
27266;DHT22;14766;51.380;13.762;2022-12-18T01:19:04;0.80;69.50
27266;DHT22;14766;51.380;13.762;2022-12-18T01:21:32;0.70;69.40
27266;DHT22;14766;51.380;13.762;2022-12-18T01:24:03;0.70;69.60
27266;DHT22;14766;51.380;13.762;2022-12-18T01:26:31;0.70;69.60
27266;DHT22;14766;51.380;13.762;2022-12-18T01:28:58;0.70;69.60
27266;DHT22;14766;51.380;13.762;2022-12-18T01:31:28;0.70;69.70
27266;DHT22;14766;51.380;13.762;2022-12-18T01:33:56;0.60;69.80
27266;DHT22;14766;51.380;13.762;2022-12-18T01:36:29;0.70;70.00
27266;DHT22;14766;51.380;13.762;2022-12-18T01:38:56;0.70;70.00
27266;DHT22;14766;51.380;13.762;2022-12-18T01:41:28;0.70;70.10
27266;DHT22;14766;51.380;13.762;2022-12-18T01:47:35;0.60;69.80
27266;DHT22;14766;51.380;13.762;2022-12-18T01:52:41;0.60;70.00
27266;DHT22;14766;51.380;13.762;2022-12-18T01:55:09;0.50;69.90
27266;DHT22;14766;51.380;13.762;2022-12-18T01:57:38;0.50;69.90
27266;DHT22;14766;51.380;13.762;2022-12-18T02:00:12;0.50;70.10
27266;DHT22;14766;51.380;13.762;2022-12-18T02:02:41;0.40;70.10
27266;DHT22;14766;51.380;13.762;2022-12-18T02:05:11;0.50;70.30
27266;DHT22;14766;51.380;13.762;2022-12-18T02:12:49;0.40;70.40
27266;DHT22;14766;51.380;13.762;2022-12-18T02:18:31;0.40;70.40
27266;DHT22;14766;51.380;13.762;2022-12-18T02:21:12;0.40;70.30
27266;DHT22;14766;51.380;13.762;2022-12-18T02:26:53;0.40;70.20
27266;DHT22;14766;51.380;13.762;2022-12-18T02:29:42;0.40;70.20
27266;DHT22;14766;51.380;13.762;2022-12-18T02:32:15;0.40;70.20
27266;DHT22;14766;51.380;13.762;2022-12-18T02:34:44;0.40;70.30
27266;DHT22;14766;51.380;13.762;2022-12-18T02:37:16;0.40;70.40
27266;DHT22;14766;51.380;13.762;2022-12-18T02:39:47;0.30;70.40
27266;DHT22;14766;51.380;13.762;2022-12-18T02:42:17;0.30;70.40
27266;DHT22;14766;51.380;13.762;2022-12-18T02:44:46;0.30;70.40
27266;DHT22;14766;51.380;13.762;2022-12-18T02:47:19;0.30;70.40
27266;DHT22;14766;51.380;13.762;2022-12-18T02:53:18;0.20;70.50
27266;DHT22;14766;51.380;13.762;2022-12-18T03:01:49;0.20;70.70
27266;DHT22;14766;51.380;13.762;2022-12-18T03:04:28;0.10;70.60
27266;DHT22;14766;51.380;13.762;2022-12-18T03:07:23;0.10;70.70
27266;DHT22;14766;51.380;13.762;2022-12-18T03:09:55;0.10;71.60
27266;DHT22;14766;51.380;13.762;2022-12-18T03:12:32;0.10;70.90
27266;DHT22;14766;51.380;13.762;2022-12-18T03:15:17;0.10;70.90
27266;DHT22;14766;51.380;13.762;2022-12-18T03:17:54;0.10;71.00
27266;DHT22;14766;51.380;13.762;2022-12-18T03:20:27;0.10;71.00
27266;DHT22;14766;51.380;13.762;2022-12-18T03:23:00;0.10;70.90
27266;DHT22;14766;51.380;13.762;2022-12-18T03:25:30;0.10;70.90
27266;DHT22;14766;51.380;13.762;2022-12-18T03:28:00;0.10;70.70
27266;DHT22;14766;51.380;13.762;2022-12-18T03:30:29;0.00;70.60
27266;DHT22;14766;51.380;13.762;2022-12-18T03:33:05;0.00;70.80
27266;DHT22;14766;51.380;13.762;2022-12-18T03:35:39;0.00;71.00
27266;DHT22;14766;51.380;13.762;2022-12-18T03:38:12;0.00;71.00
27266;DHT22;14766;51.380;13.762;2022-12-18T03:50:59;0.00;71.20
27266;DHT22;14766;51.380;13.762;2022-12-18T03:53:52;0.00;70.80
27266;DHT22;14766;51.380;13.762;2022-12-18T03:57:06;-0.10;70.50
27266;DHT22;14766;51.380;13.762;2022-12-18T03:59:35;-0.10;70.60
27266;DHT22;14766;51.380;13.762;2022-12-18T04:02:05;-0.20;70.60
27266;DHT22;14766;51.380;13.762;2022-12-18T04:04:35;-0.20;70.60
27266;DHT22;14766;51.380;13.762;2022-12-18T04:07:04;-0.30;70.50
27266;DHT22;14766;51.380;13.762;2022-12-18T04:09:34;-0.30;70.40
27266;DHT22;14766;51.380;13.762;2022-12-18T04:12:04;-0.40;70.60
27266;DHT22;14766;51.380;13.762;2022-12-18T04:14:31;-0.40;70.80
27266;DHT22;14766;51.380;13.762;2022-12-18T04:17:04;-0.50;71.00
27266;DHT22;14766;51.380;13.762;2022-12-18T04:19:38;-0.50;71.40
27266;DHT22;14766;51.380;13.762;2022-12-18T04:22:21;-0.50;71.20
27266;DHT22;14766;51.380;13.762;2022-12-18T04:25:01;-0.50;71.00
27266;DHT22;14766;51.380;13.762;2022-12-18T04:27:35;-0.50;70.90
27266;DHT22;14766;51.380;13.762;2022-12-18T04:30:04;-0.50;71.10
27266;DHT22;14766;51.380;13.762;2022-12-18T04:32:33;-0.60;70.90
27266;DHT22;14766;51.380;13.762;2022-12-18T04:35:01;-0.60;70.80
27266;DHT22;14766;51.380;13.762;2022-12-18T04:37:32;-0.60;71.00
27266;DHT22;14766;51.380;13.762;2022-12-18T04:40:25;-0.60;71.00
27266;DHT22;14766;51.380;13.762;2022-12-18T04:43:12;-0.60;70.90
27266;DHT22;14766;51.380;13.762;2022-12-18T04:46:06;-0.60;70.90
27266;DHT22;14766;51.380;13.762;2022-12-18T04:48:34;-0.60;70.70
27266;DHT22;14766;51.380;13.762;2022-12-18T04:51:18;-0.70;70.60
27266;DHT22;14766;51.380;13.762;2022-12-18T04:53:52;-0.70;70.60
27266;DHT22;14766;51.380;13.762;2022-12-18T04:56:20;-0.70;70.50
27266;DHT22;14766;51.380;13.762;2022-12-18T04:58:47;-0.70;70.60
27266;DHT22;14766;51.380;13.762;2022-12-18T05:01:16;-0.70;70.50
27266;DHT22;14766;51.380;13.762;2022-12-18T05:03:44;-0.70;70.50
27266;DHT22;14766;51.380;13.762;2022-12-18T05:06:20;-0.80;70.50
27266;DHT22;14766;51.380;13.762;2022-12-18T05:08:50;-0.80;70.50
27266;DHT22;14766;51.380;13.762;2022-12-18T05:11:17;-0.80;70.40
27266;DHT22;14766;51.380;13.762;2022-12-18T05:13:45;-0.90;70.40
27266;DHT22;14766;51.380;13.762;2022-12-18T05:16:13;-0.90;70.30
27266;DHT22;14766;51.380;13.762;2022-12-18T05:18:41;-0.90;70.40
27266;DHT22;14766;51.380;13.762;2022-12-18T05:21:08;-1.00;70.30
27266;DHT22;14766;51.380;13.762;2022-12-18T05:23:35;-1.00;70.30
27266;DHT22;14766;51.380;13.762;2022-12-18T05:26:05;-1.00;70.20
27266;DHT22;14766;51.380;13.762;2022-12-18T05:28:34;-1.00;70.20
27266;DHT22;14766;51.380;13.762;2022-12-18T05:31:03;-1.10;69.90
27266;DHT22;14766;51.380;13.762;2022-12-18T05:33:33;-1.10;69.70
27266;DHT22;14766;51.380;13.762;2022-12-18T05:36:02;-1.20;69.50
27266;DHT22;14766;51.380;13.762;2022-12-18T05:38:31;-1.20;69.80
27266;DHT22;14766;51.380;13.762;2022-12-18T05:40:58;-1.30;69.90
27266;DHT22;14766;51.380;13.762;2022-12-18T05:43:26;-1.30;70.20
27266;DHT22;14766;51.380;13.762;2022-12-18T05:45:54;-1.30;70.30
27266;DHT22;14766;51.380;13.762;2022-12-18T05:48:21;-1.30;70.30
27266;DHT22;14766;51.380;13.762;2022-12-18T05:50:49;-1.30;70.30
27266;DHT22;14766;51.380;13.762;2022-12-18T05:53:18;-1.30;70.30
27266;DHT22;14766;51.380;13.762;2022-12-18T05:55:46;-1.30;70.40
27266;DHT22;14766;51.380;13.762;2022-12-18T05:58:14;-1.30;70.30
27266;DHT22;14766;51.380;13.762;2022-12-18T06:00:44;-1.30;70.20
27266;DHT22;14766;51.380;13.762;2022-12-18T06:03:12;-1.40;70.00
27266;DHT22;14766;51.380;13.762;2022-12-18T06:05:44;-1.40;69.80
27266;DHT22;14766;51.380;13.762;2022-12-18T06:08:13;-1.40;69.60
27266;DHT22;14766;51.380;13.762;2022-12-18T06:10:41;-1.40;69.70
27266;DHT22;14766;51.380;13.762;2022-12-18T06:13:08;-1.50;69.80
27266;DHT22;14766;51.380;13.762;2022-12-18T06:15:36;-1.50;70.00
27266;DHT22;14766;51.380;13.762;2022-12-18T06:18:04;-1.50;70.00
27266;DHT22;14766;51.380;13.762;2022-12-18T06:20:31;-1.50;70.20
27266;DHT22;14766;51.380;13.762;2022-12-18T06:23:00;-1.50;70.20
27266;DHT22;14766;51.380;13.762;2022-12-18T06:25:27;-1.60;70.20
27266;DHT22;14766;51.380;13.762;2022-12-18T06:27:54;-1.50;70.30
27266;DHT22;14766;51.380;13.762;2022-12-18T06:30:22;-1.50;70.40
27266;DHT22;14766;51.380;13.762;2022-12-18T06:32:49;-1.50;70.40
27266;DHT22;14766;51.380;13.762;2022-12-18T06:35:23;-1.50;70.20
27266;DHT22;14766;51.380;13.762;2022-12-18T06:37:51;-1.50;70.00
27266;DHT22;14766;51.380;13.762;2022-12-18T06:40:18;-1.50;69.90
27266;DHT22;14766;51.380;13.762;2022-12-18T06:42:45;-1.60;69.70
27266;DHT22;14766;51.380;13.762;2022-12-18T06:45:12;-1.60;69.60
27266;DHT22;14766;51.380;13.762;2022-12-18T06:47:40;-1.60;69.50
27266;DHT22;14766;51.380;13.762;2022-12-18T06:50:07;-1.60;69.30
27266;DHT22;14766;51.380;13.762;2022-12-18T06:52:34;-1.60;69.30
27266;DHT22;14766;51.380;13.762;2022-12-18T06:55:01;-1.60;69.30
27266;DHT22;14766;51.380;13.762;2022-12-18T06:57:28;-1.60;69.20
27266;DHT22;14766;51.380;13.762;2022-12-18T06:59:58;-1.60;69.10
27266;DHT22;14766;51.380;13.762;2022-12-18T07:02:26;-1.60;68.90
27266;DHT22;14766;51.380;13.762;2022-12-18T07:04:53;-1.60;68.90
27266;DHT22;14766;51.380;13.762;2022-12-18T07:07:20;-1.60;68.60
27266;DHT22;14766;51.380;13.762;2022-12-18T07:09:49;-1.60;68.40
27266;DHT22;14766;51.380;13.762;2022-12-18T07:12:17;-1.60;68.40
27266;DHT22;14766;51.380;13.762;2022-12-18T07:14:44;-1.60;68.20
27266;DHT22;14766;51.380;13.762;2022-12-18T07:17:11;-1.60;68.10
27266;DHT22;14766;51.380;13.762;2022-12-18T07:19:38;-1.60;68.10
27266;DHT22;14766;51.380;13.762;2022-12-18T07:22:05;-1.60;68.00
27266;DHT22;14766;51.380;13.762;2022-12-18T07:24:33;-1.60;67.80
27266;DHT22;14766;51.380;13.762;2022-12-18T07:27:01;-1.60;67.70
27266;DHT22;14766;51.380;13.762;2022-12-18T07:29:28;-1.60;67.80
27266;DHT22;14766;51.380;13.762;2022-12-18T07:31:55;-1.60;67.70
27266;DHT22;14766;51.380;13.762;2022-12-18T07:34:22;-1.60;67.50
27266;DHT22;14766;51.380;13.762;2022-12-18T07:36:50;-1.60;67.40
27266;DHT22;14766;51.380;13.762;2022-12-18T07:39:17;-1.60;67.10
27266;DHT22;14766;51.380;13.762;2022-12-18T07:41:44;-1.60;67.00
27266;DHT22;14766;51.380;13.762;2022-12-18T07:44:34;-1.60;66.80
27266;DHT22;14766;51.380;13.762;2022-12-18T07:47:01;-1.60;66.60
27266;DHT22;14766;51.380;13.762;2022-12-18T07:49:34;-1.60;66.50
27266;DHT22;14766;51.380;13.762;2022-12-18T07:52:02;-1.60;66.40
27266;DHT22;14766;51.380;13.762;2022-12-18T07:54:29;-1.60;66.50
27266;DHT22;14766;51.380;13.762;2022-12-18T07:56:56;-1.60;66.40
27266;DHT22;14766;51.380;13.762;2022-12-18T07:59:23;-1.60;66.40
27266;DHT22;14766;51.380;13.762;2022-12-18T08:01:50;-1.50;66.30
27266;DHT22;14766;51.380;13.762;2022-12-18T08:04:17;-1.50;66.50
27266;DHT22;14766;51.380;13.762;2022-12-18T08:06:44;-1.40;66.80
27266;DHT22;14766;51.380;13.762;2022-12-18T08:09:14;-1.30;66.90
27266;DHT22;14766;51.380;13.762;2022-12-18T08:11:41;-1.20;67.00
27266;DHT22;14766;51.380;13.762;2022-12-18T08:14:08;-1.20;66.80
27266;DHT22;14766;51.380;13.762;2022-12-18T08:16:35;-1.10;66.80
27266;DHT22;14766;51.380;13.762;2022-12-18T08:19:02;-1.00;66.70
27266;DHT22;14766;51.380;13.762;2022-12-18T08:21:30;-1.00;66.50
27266;DHT22;14766;51.380;13.762;2022-12-18T08:23:59;-0.90;66.60
27266;DHT22;14766;51.380;13.762;2022-12-18T08:26:29;-0.80;66.90
27266;DHT22;14766;51.380;13.762;2022-12-18T08:28:58;-0.60;67.80
27266;DHT22;14766;51.380;13.762;2022-12-18T08:31:27;-0.30;68.70
27266;DHT22;14766;51.380;13.762;2022-12-18T08:33:55;0.20;69.20
27266;DHT22;14766;51.380;13.762;2022-12-18T08:36:23;0.60;68.20
27266;DHT22;14766;51.380;13.762;2022-12-18T08:38:52;1.10;66.80
27266;DHT22;14766;51.380;13.762;2022-12-18T08:41:20;1.50;65.10
27266;DHT22;14766;51.380;13.762;2022-12-18T08:43:47;1.80;63.10
27266;DHT22;14766;51.380;13.762;2022-12-18T08:46:38;2.00;61.20
27266;DHT22;14766;51.380;13.762;2022-12-18T08:49:06;2.10;59.70
27266;DHT22;14766;51.380;13.762;2022-12-18T08:51:34;2.10;59.10
27266;DHT22;14766;51.380;13.762;2022-12-18T08:54:02;2.00;58.60
27266;DHT22;14766;51.380;13.762;2022-12-18T08:56:32;2.00;58.60
27266;DHT22;14766;51.380;13.762;2022-12-18T08:58:59;2.00;59.00
27266;DHT22;14766;51.380;13.762;2022-12-18T09:01:27;2.00;59.40
27266;DHT22;14766;51.380;13.762;2022-12-18T09:03:55;2.20;59.90
27266;DHT22;14766;51.380;13.762;2022-12-18T09:06:22;2.40;60.50
27266;DHT22;14766;51.380;13.762;2022-12-18T09:08:50;2.70;60.60
27266;DHT22;14766;51.380;13.762;2022-12-18T09:11:23;3.00;60.60
27266;DHT22;14766;51.380;13.762;2022-12-18T09:13:52;3.40;60.80
27266;DHT22;14766;51.380;13.762;2022-12-18T09:16:20;3.80;59.60
27266;DHT22;14766;51.380;13.762;2022-12-18T09:18:51;4.20;59.80
27266;DHT22;14766;51.380;13.762;2022-12-18T09:21:28;4.60;58.80
27266;DHT22;14766;51.380;13.762;2022-12-18T09:23:56;5.00;57.60
27266;DHT22;14766;51.380;13.762;2022-12-18T09:26:24;5.30;56.70
27266;DHT22;14766;51.380;13.762;2022-12-18T09:28:53;5.60;56.00
27266;DHT22;14766;51.380;13.762;2022-12-18T09:31:23;5.90;54.80
27266;DHT22;14766;51.380;13.762;2022-12-18T09:33:51;6.20;53.80
27266;DHT22;14766;51.380;13.762;2022-12-18T09:36:18;6.40;53.10
27266;DHT22;14766;51.380;13.762;2022-12-18T09:38:47;6.60;53.10
27266;DHT22;14766;51.380;13.762;2022-12-18T09:46:39;7.20;51.50
27266;DHT22;14766;51.380;13.762;2022-12-18T09:49:13;7.30;51.10
27266;DHT22;14766;51.380;13.762;2022-12-18T09:51:52;7.50;51.00
27266;DHT22;14766;51.380;13.762;2022-12-18T09:54:30;7.70;51.10
27266;DHT22;14766;51.380;13.762;2022-12-18T09:57:00;7.80;50.10
27266;DHT22;14766;51.380;13.762;2022-12-18T09:59:38;7.90;49.60
27266;DHT22;14766;51.380;13.762;2022-12-18T10:02:26;8.00;49.70
27266;DHT22;14766;51.380;13.762;2022-12-18T10:16:00;8.20;48.80
27266;DHT22;14766;51.380;13.762;2022-12-18T10:26:42;8.20;48.70
27266;DHT22;14766;51.380;13.762;2022-12-18T10:29:16;8.20;48.30
27266;DHT22;14766;51.380;13.762;2022-12-18T10:31:43;8.20;47.80
27266;DHT22;14766;51.380;13.762;2022-12-18T10:34:15;8.20;47.60
27266;DHT22;14766;51.380;13.762;2022-12-18T10:36:42;8.20;47.70
27266;DHT22;14766;51.380;13.762;2022-12-18T10:39:21;8.20;47.60
27266;DHT22;14766;51.380;13.762;2022-12-18T10:41:49;8.20;48.10
27266;DHT22;14766;51.380;13.762;2022-12-18T10:44:21;8.20;48.00
27266;DHT22;14766;51.380;13.762;2022-12-18T10:47:03;8.30;47.90
27266;DHT22;14766;51.380;13.762;2022-12-18T10:49:40;8.30;48.00
27266;DHT22;14766;51.380;13.762;2022-12-18T10:52:23;8.30;47.50
27266;DHT22;14766;51.380;13.762;2022-12-18T10:55:03;8.40;47.80
27266;DHT22;14766;51.380;13.762;2022-12-18T10:57:39;8.40;47.40
27266;DHT22;14766;51.380;13.762;2022-12-18T11:00:29;8.50;47.30
27266;DHT22;14766;51.380;13.762;2022-12-18T11:02:57;8.50;47.20
27266;DHT22;14766;51.380;13.762;2022-12-18T11:05:31;8.50;46.60
27266;DHT22;14766;51.380;13.762;2022-12-18T11:08:00;8.60;47.00
27266;DHT22;14766;51.380;13.762;2022-12-18T11:10:37;8.60;47.00
27266;DHT22;14766;51.380;13.762;2022-12-18T11:13:17;8.60;46.40
27266;DHT22;14766;51.380;13.762;2022-12-18T11:15:45;8.60;46.10
27266;DHT22;14766;51.380;13.762;2022-12-18T11:20:57;8.50;44.40
27266;DHT22;14766;51.380;13.762;2022-12-18T11:23:26;8.40;44.70
27266;DHT22;14766;51.380;13.762;2022-12-18T11:26:04;8.40;44.60
27266;DHT22;14766;51.380;13.762;2022-12-18T11:28:43;8.30;45.20
27266;DHT22;14766;51.380;13.762;2022-12-18T11:31:28;8.20;44.40
27266;DHT22;14766;51.380;13.762;2022-12-18T11:36:48;8.20;46.00
27266;DHT22;14766;51.380;13.762;2022-12-18T11:39:37;8.20;45.80
27266;DHT22;14766;51.380;13.762;2022-12-18T11:42:24;8.20;45.70
27266;DHT22;14766;51.380;13.762;2022-12-18T11:45:03;8.30;45.20
27266;DHT22;14766;51.380;13.762;2022-12-18T11:50:41;8.30;45.50
27266;DHT22;14766;51.380;13.762;2022-12-18T11:53:13;8.40;44.20
27266;DHT22;14766;51.380;13.762;2022-12-18T12:01:18;8.30;45.20
27266;DHT22;14766;51.380;13.762;2022-12-18T12:09:56;8.00;44.80
27266;DHT22;14766;51.380;13.762;2022-12-18T12:21:12;7.30;45.50
27266;DHT22;14766;51.380;13.762;2022-12-18T12:26:44;7.00;46.30
27266;DHT22;14766;51.380;13.762;2022-12-18T12:39:52;6.10;46.90
27266;DHT22;14766;51.380;13.762;2022-12-18T12:42:45;5.90;47.00
27266;DHT22;14766;51.380;13.762;2022-12-18T12:48:46;5.50;47.40
27266;DHT22;14766;51.380;13.762;2022-12-18T12:51:24;5.30;47.70
27266;DHT22;14766;51.380;13.762;2022-12-18T12:53:54;5.20;48.20
27266;DHT22;14766;51.380;13.762;2022-12-18T12:56:26;5.00;48.60
27266;DHT22;14766;51.380;13.762;2022-12-18T13:02:05;4.80;49.50
27266;DHT22;14766;51.380;13.762;2022-12-18T13:04:59;4.60;49.70
27266;DHT22;14766;51.380;13.762;2022-12-18T13:07:35;4.50;49.90
27266;DHT22;14766;51.380;13.762;2022-12-18T13:12:52;4.30;50.30
27266;DHT22;14766;51.380;13.762;2022-12-18T13:15:48;4.20;50.50
27266;DHT22;14766;51.380;13.762;2022-12-18T13:21:01;4.00;51.00
27266;DHT22;14766;51.380;13.762;2022-12-18T13:23:48;3.90;51.20
27266;DHT22;14766;51.380;13.762;2022-12-18T13:28:55;3.70;51.40
27266;DHT22;14766;51.380;13.762;2022-12-18T13:34:26;3.50;51.90
27266;DHT22;14766;51.380;13.762;2022-12-18T13:45:58;3.00;52.50
27266;DHT22;14766;51.380;13.762;2022-12-18T13:48:29;2.80;52.80
27266;DHT22;14766;51.380;13.762;2022-12-18T13:51:05;2.70;53.20
27266;DHT22;14766;51.380;13.762;2022-12-18T13:53:44;2.60;53.50
27266;DHT22;14766;51.380;13.762;2022-12-18T13:56:22;2.50;53.80
27266;DHT22;14766;51.380;13.762;2022-12-18T13:59:13;2.50;54.00
27266;DHT22;14766;51.380;13.762;2022-12-18T14:02:07;2.40;54.30
27266;DHT22;14766;51.380;13.762;2022-12-18T14:04:38;2.30;54.40
27266;DHT22;14766;51.380;13.762;2022-12-18T14:07:24;2.20;54.70
27266;DHT22;14766;51.380;13.762;2022-12-18T14:09:57;2.20;54.90
27266;DHT22;14766;51.380;13.762;2022-12-18T14:12:49;2.20;54.90
27266;DHT22;14766;51.380;13.762;2022-12-18T14:15:39;2.10;55.10
27266;DHT22;14766;51.380;13.762;2022-12-18T14:20:57;2.00;55.20
27266;DHT22;14766;51.380;13.762;2022-12-18T14:26:19;2.00;55.30
27266;DHT22;14766;51.380;13.762;2022-12-18T14:28:47;1.90;55.50
27266;DHT22;14766;51.380;13.762;2022-12-18T14:31:23;1.90;55.50
27266;DHT22;14766;51.380;13.762;2022-12-18T14:33:51;1.90;55.50
27266;DHT22;14766;51.380;13.762;2022-12-18T14:36:25;1.90;55.50
27266;DHT22;14766;51.380;13.762;2022-12-18T14:38:54;1.90;55.60
27266;DHT22;14766;51.380;13.762;2022-12-18T14:41:23;1.90;55.50
27266;DHT22;14766;51.380;13.762;2022-12-18T14:43:53;1.80;55.60
27266;DHT22;14766;51.380;13.762;2022-12-18T14:46:35;1.70;55.60
27266;DHT22;14766;51.380;13.762;2022-12-18T14:49:17;1.70;55.70
27266;DHT22;14766;51.380;13.762;2022-12-18T14:51:50;1.70;55.80
27266;DHT22;14766;51.380;13.762;2022-12-18T14:54:20;1.60;55.80
27266;DHT22;14766;51.380;13.762;2022-12-18T14:56:55;1.60;56.00
27266;DHT22;14766;51.380;13.762;2022-12-18T14:59:24;1.50;56.10
27266;DHT22;14766;51.380;13.762;2022-12-18T15:02:17;1.50;56.20
27266;DHT22;14766;51.380;13.762;2022-12-18T15:04:46;1.50;56.20
27266;DHT22;14766;51.380;13.762;2022-12-18T15:07:21;1.50;56.30
27266;DHT22;14766;51.380;13.762;2022-12-18T15:12:44;1.30;56.50
27266;DHT22;14766;51.380;13.762;2022-12-18T15:15:52;1.30;56.50
27266;DHT22;14766;51.380;13.762;2022-12-18T15:18:20;1.30;56.60
27266;DHT22;14766;51.380;13.762;2022-12-18T15:20:56;1.20;56.40
27266;DHT22;14766;51.380;13.762;2022-12-18T15:28:37;1.10;56.70
27266;DHT22;14766;51.380;13.762;2022-12-18T15:33:38;1.00;57.00
27266;DHT22;14766;51.380;13.762;2022-12-18T15:36:12;0.90;57.30
27266;DHT22;14766;51.380;13.762;2022-12-18T15:38:40;0.90;57.50
27266;DHT22;14766;51.380;13.762;2022-12-18T15:41:16;0.80;57.70
27266;DHT22;14766;51.380;13.762;2022-12-18T15:43:51;0.80;58.10
27266;DHT22;14766;51.380;13.762;2022-12-18T15:46:21;0.70;58.20
27266;DHT22;14766;51.380;13.762;2022-12-18T15:48:56;0.70;58.20
27266;DHT22;14766;51.380;13.762;2022-12-18T15:51:35;0.60;58.20
27266;DHT22;14766;51.380;13.762;2022-12-18T15:54:05;0.60;58.60
27266;DHT22;14766;51.380;13.762;2022-12-18T15:56:33;0.50;58.60
27266;DHT22;14766;51.380;13.762;2022-12-18T15:59:20;0.50;58.30
27266;DHT22;14766;51.380;13.762;2022-12-18T16:01:50;0.50;58.70
27266;DHT22;14766;51.380;13.762;2022-12-18T16:04:19;0.50;58.90
27266;DHT22;14766;51.380;13.762;2022-12-18T16:06:50;0.40;58.90
27266;DHT22;14766;51.380;13.762;2022-12-18T16:09:38;0.40;58.60
27266;DHT22;14766;51.380;13.762;2022-12-18T16:12:17;0.40;58.60
27266;DHT22;14766;51.380;13.762;2022-12-18T16:14:44;0.40;58.60
27266;DHT22;14766;51.380;13.762;2022-12-18T16:17:12;0.30;58.60
27266;DHT22;14766;51.380;13.762;2022-12-18T16:19:40;0.30;58.90
27266;DHT22;14766;51.380;13.762;2022-12-18T16:22:22;0.30;59.20
27266;DHT22;14766;51.380;13.762;2022-12-18T16:24:50;0.30;59.30
27266;DHT22;14766;51.380;13.762;2022-12-18T16:27:18;0.20;59.50
27266;DHT22;14766;51.380;13.762;2022-12-18T16:29:46;0.20;59.50
27266;DHT22;14766;51.380;13.762;2022-12-18T16:32:21;0.10;59.60
27266;DHT22;14766;51.380;13.762;2022-12-18T16:34:50;0.10;59.60
27266;DHT22;14766;51.380;13.762;2022-12-18T16:37:17;0.10;59.70
27266;DHT22;14766;51.380;13.762;2022-12-18T16:39:44;0.10;59.70
27266;DHT22;14766;51.380;13.762;2022-12-18T16:42:13;0.10;59.80
27266;DHT22;14766;51.380;13.762;2022-12-18T16:44:43;0.10;59.70
27266;DHT22;14766;51.380;13.762;2022-12-18T16:47:13;0.10;59.70
27266;DHT22;14766;51.380;13.762;2022-12-18T16:49:41;0.10;59.80
27266;DHT22;14766;51.380;13.762;2022-12-18T16:52:08;0.10;59.70
27266;DHT22;14766;51.380;13.762;2022-12-18T16:54:36;0.10;59.80
27266;DHT22;14766;51.380;13.762;2022-12-18T16:57:06;0.10;59.70
27266;DHT22;14766;51.380;13.762;2022-12-18T16:59:33;0.10;59.80
27266;DHT22;14766;51.380;13.762;2022-12-18T17:02:00;0.10;59.70
27266;DHT22;14766;51.380;13.762;2022-12-18T17:04:33;0.10;60.60
27266;DHT22;14766;51.380;13.762;2022-12-18T17:07:00;0.10;59.70
27266;DHT22;14766;51.380;13.762;2022-12-18T17:09:28;0.10;59.80
27266;DHT22;14766;51.380;13.762;2022-12-18T17:11:55;0.10;59.80
27266;DHT22;14766;51.380;13.762;2022-12-18T17:14:23;0.10;59.90
27266;DHT22;14766;51.380;13.762;2022-12-18T17:16:53;0.10;59.90
27266;DHT22;14766;51.380;13.762;2022-12-18T17:19:41;0.20;59.80
27266;DHT22;14766;51.380;13.762;2022-12-18T17:22:09;0.10;60.00
27266;DHT22;14766;51.380;13.762;2022-12-18T17:24:37;0.20;59.90
27266;DHT22;14766;51.380;13.762;2022-12-18T17:27:04;0.20;59.90
27266;DHT22;14766;51.380;13.762;2022-12-18T17:29:31;0.20;59.80
27266;DHT22;14766;51.380;13.762;2022-12-18T17:31:58;0.20;59.80
27266;DHT22;14766;51.380;13.762;2022-12-18T17:34:26;0.20;59.80
27266;DHT22;14766;51.380;13.762;2022-12-18T17:36:55;0.20;59.90
27266;DHT22;14766;51.380;13.762;2022-12-18T17:39:23;0.20;60.00
27266;DHT22;14766;51.380;13.762;2022-12-18T17:41:49;0.30;60.20
27266;DHT22;14766;51.380;13.762;2022-12-18T17:44:17;0.30;60.00
27266;DHT22;14766;51.380;13.762;2022-12-18T17:46:44;0.20;60.00
27266;DHT22;14766;51.380;13.762;2022-12-18T17:49:12;0.20;60.20
27266;DHT22;14766;51.380;13.762;2022-12-18T17:51:40;0.20;60.30
27266;DHT22;14766;51.380;13.762;2022-12-18T17:54:09;0.30;60.30
27266;DHT22;14766;51.380;13.762;2022-12-18T17:56:37;0.30;60.30
27266;DHT22;14766;51.380;13.762;2022-12-18T17:59:05;0.30;60.30
27266;DHT22;14766;51.380;13.762;2022-12-18T18:01:33;0.30;60.20
27266;DHT22;14766;51.380;13.762;2022-12-18T18:04:06;0.30;60.30
27266;DHT22;14766;51.380;13.762;2022-12-18T18:06:34;0.30;60.20
27266;DHT22;14766;51.380;13.762;2022-12-18T18:09:08;0.30;60.10
27266;DHT22;14766;51.380;13.762;2022-12-18T18:11:44;0.30;60.10
27266;DHT22;14766;51.380;13.762;2022-12-18T18:14:31;0.30;60.10
27266;DHT22;14766;51.380;13.762;2022-12-18T18:17:00;0.30;60.00
27266;DHT22;14766;51.380;13.762;2022-12-18T18:19:32;0.30;60.00
27266;DHT22;14766;51.380;13.762;2022-12-18T18:22:00;0.30;60.00
27266;DHT22;14766;51.380;13.762;2022-12-18T18:24:29;0.30;59.90